
Distance (Route):
Temperature : -54.5°C
Humidity : 22.0%
Pressure : 0hPa| Receiver | Frames | First received | Last received |
|---|---|---|---|
| LZ4TU-5 | 80 | 2026-09-03 23:36:21 | 2026-09-04 00:54:49 |
| Receiver | Date | Latitude | Longitude | Direction | Speed | Altitude | Climb | Temperature | Humidity | Pressure | Voltage | Killtimer | Uptime | BKT | XDATA |
|---|---|---|---|---|---|---|---|---|---|---|---|---|---|---|---|
| LZ4TU-5 | 2026-09-04 00:54:49 | 42.77580 | 20.36898 | 172° | 144km/h | 11287m | -24.1m/s | -54.5°C | 22.0% | 0hPa | 0V | 00:00:00 | 00:00:00 | 00:00:00 | |
| LZ4TU-5 | 2026-09-04 00:54:44 | 42.77757 | 20.36861 | 171° | 139km/h | 11407m | -23.4m/s | -54.5°C | 18.0% | 0hPa | 0V | 00:00:00 | 00:00:00 | 00:00:00 | |
| LZ4TU-5 | 2026-09-04 00:50:13 | 42.80598 | 20.33410 | 101° | 7km/h | 19594m | -38.9m/s | -56.5°C | 0.0% | 0hPa | 0V | 00:00:00 | 00:00:00 | 00:00:00 | |
| LZ4TU-5 | 2026-09-04 00:50:09 | 42.80602 | 20.33401 | 140° | 11km/h | 19758m | -39.6m/s | -56.8°C | 0.0% | 0hPa | 0V | 00:00:00 | 00:00:00 | 00:00:00 | |
| LZ4TU-5 | 2026-09-04 00:42:53 | 42.80202 | 20.34243 | 145° | 22km/h | 31505m | 8.1m/s | -41.2°C | 0.0% | 0hPa | 0V | 00:00:00 | 00:00:00 | 00:00:00 | |
| LZ4TU-5 | 2026-09-04 00:42:48 | 42.80195 | 20.34215 | 327° | 9km/h | 31472m | 8.3m/s | -41.6°C | 0.0% | 0hPa | 0V | 00:00:00 | 00:00:00 | 00:00:00 | |
| LZ4TU-5 | 2026-09-04 00:40:49 | 42.80212 | 20.34600 | 164° | 11km/h | 30646m | 5.4m/s | -42.5°C | 0.0% | 0hPa | 0V | 00:00:00 | 00:00:00 | 00:00:00 | |
| LZ4TU-5 | 2026-09-04 00:40:45 | 42.80223 | 20.34610 | 267° | 26km/h | 30618m | 8.7m/s | -42.5°C | 0.0% | 0hPa | 0V | 00:00:00 | 00:00:00 | 00:00:00 | |
| LZ4TU-5 | 2026-09-04 00:39:00 | 42.80250 | 20.34834 | 172° | 5km/h | 29914m | 7.3m/s | -42.2°C | 0.0% | 0hPa | 0V | 00:00:00 | 00:00:00 | 00:00:00 | |
| LZ4TU-5 | 2026-09-04 00:38:56 | 42.80255 | 20.34839 | 276° | 11km/h | 29887m | 7.6m/s | -42.3°C | 0% | 0hPa | 0V | 00:00:00 | 00:00:00 | 00:00:00 | |
| LZ4TU-5 | 2026-09-04 00:37:05 | 42.80492 | 20.34940 | 329° | 4km/h | 29138m | 5.1m/s | -44.3°C | 0.0% | 0hPa | 0V | 00:00:00 | 00:00:00 | 00:00:00 | |
| LZ4TU-5 | 2026-09-04 00:37:01 | 42.80487 | 20.34922 | 82° | 20km/h | 29114m | 4.0m/s | -44.3°C | 0.0% | 0hPa | 0V | 00:00:00 | 00:00:00 | 00:00:00 | |
| LZ4TU-5 | 2026-09-04 00:35:15 | 42.80332 | 20.34737 | 314° | 27km/h | 28412m | 7.0m/s | -45.4°C | 0.0% | 0hPa | 0V | 00:00:00 | 00:00:00 | 00:00:00 | |
| LZ4TU-5 | 2026-09-04 00:35:09 | 42.80321 | 20.34772 | 313° | 9km/h | 28379m | 6.9m/s | -45.5°C | 0.0% | 0hPa | 0V | 00:00:00 | 00:00:00 | 00:00:00 | |
| LZ4TU-5 | 2026-09-04 00:33:27 | 42.80036 | 20.34711 | 297° | 18km/h | 27674m | 7.1m/s | -46.6°C | 0.0% | 0hPa | 0V | 00:00:00 | 00:00:00 | 00:00:00 | |
| LZ4TU-5 | 2026-09-04 00:33:23 | 42.80029 | 20.34724 | 34° | 7km/h | 27646m | 5.0m/s | -46.6°C | 0.0% | 0hPa | 0V | 00:00:00 | 00:00:00 | 00:00:00 | |
| LZ4TU-5 | 2026-09-04 00:31:41 | 42.79817 | 20.34641 | 26° | 29km/h | 26983m | 5.2m/s | -46.5°C | 0.0% | 0hPa | 0V | 00:00:00 | 00:00:00 | 00:00:00 | |
| LZ4TU-5 | 2026-09-04 00:31:36 | 42.79803 | 20.34655 | 330° | 11km/h | 26951m | 5.8m/s | -46.7°C | 0.0% | 0hPa | 0V | 00:00:00 | 00:00:00 | 00:00:00 | |
| LZ4TU-5 | 2026-09-04 00:29:51 | 42.79379 | 20.35101 | 249° | 15km/h | 26277m | 6.7m/s | -48.2°C | 0.0% | 0hPa | 0V | 00:00:00 | 00:00:00 | 00:00:00 | |
| LZ4TU-5 | 2026-09-04 00:29:46 | 42.79370 | 20.35130 | 300° | 27km/h | 26246m | 4.7m/s | -48.1°C | 0.0% | 0hPa | 0V | 00:00:00 | 00:00:00 | 00:00:00 | |
| LZ4TU-5 | 2026-09-04 00:27:57 | 42.79518 | 20.35569 | 233° | 11km/h | 25543m | 7.1m/s | -49.5°C | 0.0% | 0hPa | 0V | 00:00:00 | 00:00:00 | 00:00:00 | |
| LZ4TU-5 | 2026-09-04 00:27:52 | 42.79531 | 20.35594 | 267° | 11km/h | 25513m | 5.8m/s | -49.4°C | 0.0% | 0hPa | 0V | 00:00:00 | 00:00:00 | 00:00:00 | |
| LZ4TU-5 | 2026-09-04 00:26:09 | 42.79666 | 20.35835 | 260° | 13km/h | 24899m | 6.8m/s | -51.1°C | 0% | 0hPa | 0V | 00:00:00 | 00:00:00 | 00:00:00 | |
| LZ4TU-5 | 2026-09-04 00:26:05 | 42.79665 | 20.35864 | 263° | 26km/h | 24875m | 5.3m/s | -51.3°C | 0.0% | 0hPa | 0V | 00:00:00 | 00:00:00 | 00:00:00 | |
| LZ4TU-5 | 2026-09-04 00:24:21 | 42.79533 | 20.36014 | 312° | 2km/h | 24230m | 7.3m/s | -53.4°C | 0.0% | 0hPa | 0V | 00:00:00 | 00:00:00 | 00:00:00 | |
| LZ4TU-5 | 2026-09-04 00:24:16 | 42.79528 | 20.36020 | 293° | 20km/h | 24201m | 5.3m/s | -53.5°C | 0.0% | 0hPa | 0V | 00:00:00 | 00:00:00 | 00:00:00 | |
| LZ4TU-5 | 2026-09-04 00:22:29 | 42.79402 | 20.36462 | 293° | 22km/h | 23537m | 6.3m/s | -53.0°C | 0.0% | 0hPa | 0V | 00:00:00 | 00:00:00 | 00:00:00 | |
| LZ4TU-5 | 2026-09-04 00:22:24 | 42.79406 | 20.36503 | 252° | 26km/h | 23507m | 5.7m/s | -53.2°C | 0.0% | 0hPa | 0V | 00:00:00 | 00:00:00 | 00:00:00 | |
| LZ4TU-5 | 2026-09-04 00:20:43 | 42.79742 | 20.36992 | 215° | 33km/h | 22919m | 6.1m/s | -53.7°C | 0.0% | 0hPa | 0V | 00:00:00 | 00:00:00 | 00:00:00 | |
| LZ4TU-5 | 2026-09-04 00:20:39 | 42.79766 | 20.37003 | 153° | 22km/h | 22896m | 6.4m/s | -53.7°C | 0.0% | 0hPa | 0V | 00:00:00 | 00:00:00 | 00:00:00 | |
| LZ4TU-5 | 2026-09-04 00:18:48 | 42.79878 | 20.37212 | 181° | 18km/h | 22219m | 5.1m/s | -54.0°C | 0.0% | 0hPa | 0V | 00:00:00 | 00:00:00 | 00:00:00 | |
| LZ4TU-5 | 2026-09-04 00:18:42 | 42.79891 | 20.37224 | 210° | 7km/h | 22189m | 6.1m/s | -53.9°C | 0.0% | 0hPa | 0V | 00:00:00 | 00:00:00 | 00:00:00 | |
| LZ4TU-5 | 2026-09-04 00:16:57 | 42.80172 | 20.37060 | 175° | 18km/h | 21593m | 5.3m/s | -55.6°C | 0.0% | 0hPa | 0V | 00:00:00 | 00:00:00 | 00:00:00 | |
| LZ4TU-5 | 2026-09-04 00:16:52 | 42.80208 | 20.37062 | 180° | 24km/h | 21563m | 5.4m/s | -55.7°C | 0.0% | 0hPa | 0V | 00:00:00 | 00:00:00 | 00:00:00 | |
| LZ4TU-5 | 2026-09-04 00:15:07 | 42.80527 | 20.36592 | 94° | 20km/h | 20952m | 6.6m/s | -56.7°C | 0.0% | 0hPa | 0V | 00:00:00 | 00:00:00 | 00:00:00 | |
| LZ4TU-5 | 2026-09-04 00:13:17 | 42.80390 | 20.36114 | 21° | 16km/h | 20330m | 5.6m/s | -57.7°C | 0.0% | 0hPa | 0V | 00:00:00 | 00:00:00 | 00:00:00 | |
| LZ4TU-5 | 2026-09-04 00:13:12 | 42.80375 | 20.36097 | 75° | 7km/h | 20302m | 5.3m/s | -57.5°C | 0.0% | 0hPa | 0V | 00:00:00 | 00:00:00 | 00:00:00 | |
| LZ4TU-5 | 2026-09-04 00:11:25 | 42.80462 | 20.36042 | 73° | 15km/h | 19704m | 5.3m/s | -57.1°C | 69.9% | 0hPa | 0V | 00:00:00 | 00:00:00 | 00:00:00 | |
| LZ4TU-5 | 2026-09-04 00:11:20 | 42.80451 | 20.36038 | 260° | 7km/h | 19679m | 5.6m/s | -57.2°C | 0% | 0hPa | 0V | 00:00:00 | 00:00:00 | 00:00:00 | |
| LZ4TU-5 | 2026-09-04 00:09:33 | 42.80553 | 20.35598 | 36° | 11km/h | 19096m | 5.7m/s | -56.5°C | 0.0% | 0hPa | 0V | 00:00:00 | 00:00:00 | 00:00:00 | |
| LZ4TU-5 | 2026-09-04 00:09:28 | 42.80547 | 20.35571 | 75° | 26km/h | 19069m | 5.4m/s | -56.4°C | 0.0% | 0hPa | 0V | 00:00:00 | 00:00:00 | 00:00:00 | |
| LZ4TU-5 | 2026-09-04 00:07:35 | 42.80769 | 20.34677 | 80° | 40km/h | 18471m | 5.6m/s | -58.0°C | 0.0% | 0hPa | 0V | 00:00:00 | 00:00:00 | 00:00:00 | |
| LZ4TU-5 | 2026-09-04 00:07:30 | 42.80779 | 20.34601 | 111° | 46km/h | 18446m | 6.3m/s | -57.9°C | 0.0% | 0hPa | 0V | 00:00:00 | 00:00:00 | 00:00:00 | |
| LZ4TU-5 | 2026-09-04 00:05:45 | 42.80876 | 20.33813 | 146° | 31km/h | 17825m | 7.3m/s | -56.3°C | 0.0% | 0hPa | 0V | 00:00:00 | 00:00:00 | 00:00:00 | |
| LZ4TU-5 | 2026-09-04 00:05:40 | 42.80905 | 20.33777 | 137° | 31km/h | 17790m | 5.8m/s | -56.1°C | 0.0% | 0hPa | 0V | 00:00:00 | 00:00:00 | 00:00:00 | |
| LZ4TU-5 | 2026-09-04 00:03:59 | 42.81289 | 20.32696 | 136° | 22km/h | 17211m | 5.9m/s | -56.9°C | 0.3% | 0hPa | 0V | 00:00:00 | 00:00:00 | 00:00:00 | |
| LZ4TU-5 | 2026-09-04 00:03:55 | 42.81306 | 20.32668 | 146° | 27km/h | 17182m | 4.8m/s | -56.8°C | 0.3% | 0hPa | 0V | 00:00:00 | 00:00:00 | 00:00:00 | |
| LZ4TU-5 | 2026-09-04 00:03:49 | 42.81338 | 20.32627 | 140° | 37km/h | 17155m | 4.9m/s | -56.6°C | 0.3% | 0hPa | 0V | 00:00:00 | 00:00:00 | 00:00:00 | |
| LZ4TU-5 | 2026-09-04 00:02:29 | 42.81826 | 20.31880 | 132° | 40km/h | 16657m | 5.8m/s | -56.6°C | 0.5% | 0hPa | 0V | 00:00:00 | 00:00:00 | 00:00:00 | |
| LZ4TU-5 | 2026-09-04 00:02:24 | 42.81865 | 20.31827 | 134° | 49km/h | 16634m | 4.3m/s | -57.0°C | 0.6% | 0hPa | 0V | 00:00:00 | 00:00:00 | 00:00:00 | |
| LZ4TU-5 | 2026-09-04 00:00:20 | 42.82490 | 20.30043 | 110° | 47km/h | 16196m | 5.8m/s | -58.2°C | 1.4% | 0hPa | 0V | 00:00:00 | 00:00:00 | 00:00:00 | |
| LZ4TU-5 | 2026-09-04 00:00:17 | 42.82519 | 20.29969 | 120° | 51km/h | 16170m | 5.6m/s | -58.2°C | 1.4% | 0hPa | 0V | 00:00:00 | 00:00:00 | 00:00:00 | |
| LZ4TU-5 | 2026-09-03 23:58:41 | 42.82873 | 20.28535 | 112° | 46km/h | 15632m | 5.5m/s | -57.2°C | 2.2% | 0hPa | 0V | 00:00:00 | 00:00:00 | 00:00:00 | |
| LZ4TU-5 | 2026-09-03 23:58:36 | 42.82894 | 20.28470 | 118° | 37km/h | 15603m | 6.6m/s | -57.0°C | 0% | 0hPa | 0V | 00:00:00 | 00:00:00 | 00:00:00 | |
| LZ4TU-5 | 2026-09-03 23:56:55 | 42.83579 | 20.26862 | 100° | 60km/h | 15059m | 6.1m/s | -56.6°C | 2.6% | 0hPa | 0V | 00:00:00 | 00:00:00 | 00:00:00 | |
| LZ4TU-5 | 2026-09-03 23:56:50 | 42.83592 | 20.26773 | 111° | 49km/h | 15035m | 5.2m/s | -56.5°C | 2.6% | 0hPa | 0V | 00:00:00 | 00:00:00 | 00:00:00 | |
| LZ4TU-5 | 2026-09-03 23:55:02 | 42.84102 | 20.25185 | 125° | 44km/h | 14476m | 5.5m/s | -55.6°C | 2.9% | 0hPa | 0V | 00:00:00 | 00:00:00 | 00:00:00 | |
| LZ4TU-5 | 2026-09-03 23:54:58 | 42.84127 | 20.25132 | 120° | 44km/h | 14454m | 5.4m/s | -55.6°C | 2.9% | 0hPa | 0V | 00:00:00 | 00:00:00 | 00:00:00 | |
| LZ4TU-5 | 2026-09-03 23:53:14 | 42.84913 | 20.23764 | 136° | 62km/h | 13896m | 5.9m/s | -54.2°C | 2.4% | 0hPa | 0V | 00:00:00 | 00:00:00 | 00:00:00 | |
| LZ4TU-5 | 2026-09-03 23:53:10 | 42.84957 | 20.23702 | 124° | 62km/h | 13878m | 4.9m/s | -54.0°C | 2.4% | 0hPa | 0V | 00:00:00 | 00:00:00 | 00:00:00 | |
| LZ4TU-5 | 2026-09-03 23:51:29 | 42.86229 | 20.22148 | 135° | 78km/h | 13343m | 5.3m/s | -52.7°C | 3.6% | 0hPa | 0V | 00:00:00 | 00:00:00 | 00:00:00 | |
| LZ4TU-5 | 2026-09-03 23:51:21 | 42.86347 | 20.22006 | 136° | 80km/h | 13307m | 5.2m/s | -52.5°C | 3.7% | 0hPa | 0V | 00:00:00 | 00:00:00 | 00:00:00 | |
| LZ4TU-5 | 2026-09-03 23:51:16 | 42.86412 | 20.21915 | 134° | 69km/h | 13283m | 5.3m/s | -52.3°C | 3.8% | 0hPa | 0V | 00:00:00 | 00:00:00 | 00:00:00 | |
| LZ4TU-5 | 2026-09-03 23:49:29 | 42.87793 | 20.19875 | 145° | 93km/h | 12735m | 4.7m/s | -52.8°C | 12.1% | 0hPa | 0V | 00:00:00 | 00:00:00 | 00:00:00 | |
| LZ4TU-5 | 2026-09-03 23:47:43 | 42.90181 | 20.18150 | 160° | 131km/h | 12212m | 4.1m/s | -56.4°C | 31.5% | 0hPa | 0V | 00:00:00 | 00:00:00 | 00:00:00 | |
| LZ4TU-5 | 2026-09-03 23:47:38 | 42.90329 | 20.18066 | 152° | 120km/h | 12180m | 6.7m/s | -56.6°C | 32.0% | 0hPa | 0V | 00:00:00 | 00:00:00 | 00:00:00 | |
| LZ4TU-5 | 2026-09-03 23:45:57 | 42.93184 | 20.16352 | 165° | 126km/h | 11649m | 6.7m/s | -55.4°C | 32.2% | 0hPa | 0V | 00:00:00 | 00:00:00 | 00:00:00 | |
| LZ4TU-5 | 2026-09-03 23:45:52 | 42.93336 | 20.16286 | 166° | 130km/h | 11625m | 5.4m/s | -55.2°C | 0% | 0hPa | 0V | 00:00:00 | 00:00:00 | 00:00:00 | |
| LZ4TU-5 | 2026-09-03 23:44:05 | 42.97005 | 20.15024 | 164° | 139km/h | 11043m | 7.0m/s | -52.1°C | 39.0% | 0hPa | 0V | 00:00:00 | 00:00:00 | 00:00:00 | |
| LZ4TU-5 | 2026-09-03 23:44:00 | 42.97182 | 20.14959 | 166° | 144km/h | 11012m | 5.7m/s | -51.9°C | 39.6% | 0hPa | 0V | 00:00:00 | 00:00:00 | 00:00:00 | |
| LZ4TU-5 | 2026-09-03 23:42:25 | 43.00615 | 20.13825 | 168° | 150km/h | 10526m | 6.5m/s | -48.8°C | 38.7% | 0hPa | 0V | 00:00:00 | 00:00:00 | 00:00:00 | |
| LZ4TU-5 | 2026-09-03 23:42:20 | 43.00790 | 20.13776 | 165° | 131km/h | 10499m | 4.5m/s | -48.6°C | 38.0% | 0hPa | 0V | 00:00:00 | 00:00:00 | 00:00:00 | |
| LZ4TU-5 | 2026-09-03 23:40:55 | 43.03614 | 20.12780 | 161° | 113km/h | 10045m | 4.4m/s | -44.5°C | 29.1% | 0hPa | 0V | 00:00:00 | 00:00:00 | 00:00:00 | |
| LZ4TU-5 | 2026-09-03 23:40:51 | 43.03734 | 20.12734 | 170° | 135km/h | 10024m | 5.2m/s | -44.3°C | 29.1% | 0hPa | 0V | 00:00:00 | 00:00:00 | 00:00:00 | |
| LZ4TU-5 | 2026-09-03 23:39:24 | 43.06451 | 20.11808 | 167° | 139km/h | 9525m | 7.7m/s | -40.4°C | 34.8% | 0hPa | 0V | 00:00:00 | 00:00:00 | 00:00:00 | |
| LZ4TU-5 | 2026-09-03 23:39:19 | 43.06614 | 20.11763 | 161° | 120km/h | 9498m | 5.7m/s | -40.2°C | 37.3% | 0hPa | 0V | 00:00:00 | 00:00:00 | 00:00:00 | |
| LZ4TU-5 | 2026-09-03 23:37:53 | 43.09135 | 20.10708 | 167° | 113km/h | 9043m | 4.3m/s | -36.8°C | 51.5% | 0hPa | 0V | 00:00:00 | 00:00:00 | 00:00:00 | |
| LZ4TU-5 | 2026-09-03 23:37:48 | 43.09262 | 20.10641 | 160° | 117km/h | 9013m | 4.7m/s | -36.5°C | 53.0% | 0hPa | 0V | 00:00:00 | 00:00:00 | 00:00:00 | |
| LZ4TU-5 | 2026-09-03 23:36:25 | 43.11377 | 20.09533 | 156° | 95km/h | 8546m | 5.5m/s | -32.7°C | 42.9% | 0hPa | 0V | 00:00:00 | 00:00:00 | 00:00:00 | |
| LZ4TU-5 | 2026-09-03 23:36:21 | 43.11475 | 20.09464 | 159° | 117km/h | 8527m | 4.3m/s | -32.5°C | 42.3% | 0hPa | 0V | 00:00:00 | 00:00:00 | 00:00:00 |